Big Bear Station Historical Data
Daily Summary for December 6, 2017 Units:  Both    English   Metric
Next Day »
Daily Weekly Monthly Yearly Custom
  High: Low: Average:
Temperature: 46.8 °F /  8.2 °C 21.6 °F /  -5.8 °C 32.8 °F /  0.4 °C
Dew Point: 10.4 °F /  -12 °C -2.9 °F /  -19.4 °C 4.5 °F /  -15.3 °C
Humidity: 51% 16% 32%
Wind Speed: 4.7mph /  7.6km/h - 0.9mph /  1.4km/h
Wind Gust: -999.0mph /  -1607.7km/h - -
Wind- - SSW
Pressure: 30.35 in /  1027.7 hPa 30.23 in /  1023.6 hPa -
Precipitation: 0.00 in /  0 mm    
Historical Graphs
 
 
Tabular Data for December 6, 2017
Time Temperature Dew Point Pressure Wind Wind Speed Wind Gust Humidity Rainfall Rate (Hourly)
00:14 23.0 °F /  -5 °C 1.1 °F /  -17.2 °C 30.24in /  1023.9hPa Calm   -999.0mph /  -1607.7km/h 38% 0in /  0mm
00:29 22.6 °F /  -5.2 °C 0.8 °F /  -17.3 °C 30.24in /  1023.9hPa Calm   -999.0mph /  -1607.7km/h 38% 0in /  0mm
00:45 22.6 °F /  -5.2 °C 1.3 °F /  -17.1 °C 30.24in /  1023.9hPa Calm   -999.0mph /  -1607.7km/h 39% 0in /  0mm
01:00 22.6 °F /  -5.2 °C 1.9 °F /  -16.7 °C 30.24in /  1023.9hPa Calm   -999.0mph /  -1607.7km/h 40% 0in /  0mm
01:15 22.6 °F /  -5.2 °C 2.9 °F /  -16.2 °C 30.24in /  1023.9hPa Calm   -999.0mph /  -1607.7km/h 42% 0in /  0mm
01:30 23.5 °F /  -4.7 °C 3.2 °F /  -16 °C 30.24in /  1023.9hPa Calm   -999.0mph /  -1607.7km/h 41% 0in /  0mm
01:46 23.0 °F /  -5 °C 2.8 °F /  -16.2 °C 30.24in /  1023.9hPa Calm   -999.0mph /  -1607.7km/h 41% 0in /  0mm
02:01 22.8 °F /  -5.1 °C 2.6 °F /  -16.3 °C 30.24in /  1023.9hPa Calm   -999.0mph /  -1607.7km/h 41% 0in /  0mm
02:16 22.5 °F /  -5.3 °C 2.3 °F /  -16.5 °C 30.24in /  1023.9hPa Calm   -999.0mph /  -1607.7km/h 41% 0in /  0mm
02:31 22.5 °F /  -5.3 °C 2.3 °F /  -16.5 °C 30.24in /  1023.9hPa Calm   -999.0mph /  -1607.7km/h 41% 0in /  0mm
02:46 22.1 °F /  -5.5 °C 3.0 °F /  -16.1 °C 30.24in /  1023.9hPa Calm   -999.0mph /  -1607.7km/h 43% 0in /  0mm
03:02 21.9 °F /  -5.6 °C 3.3 °F /  -15.9 °C 30.24in /  1023.9hPa Calm   -999.0mph /  -1607.7km/h 44% 0in /  0mm
03:17 21.6 °F /  -5.8 °C 4.9 °F /  -15.1 °C 30.23in /  1023.6hPa Calm   -999.0mph /  -1607.7km/h 48% 0in /  0mm
03:32 21.7 °F /  -5.7 °C 6.3 °F /  -14.3 °C 30.23in /  1023.6hPa Calm   -999.0mph /  -1607.7km/h 51% 0in /  0mm
04:02 22.8 °F /  -5.1 °C 6.0 °F /  -14.4 °C 30.23in /  1023.6hPa Calm   -999.0mph /  -1607.7km/h 48% 0in /  0mm
04:18 23.4 °F /  -4.8 °C 4.2 °F /  -15.4 °C 30.24in /  1023.9hPa Calm   -999.0mph /  -1607.7km/h 43% 0in /  0mm
04:33 23.2 °F /  -4.9 °C 3.5 °F /  -15.8 °C 30.24in /  1023.9hPa Calm   -999.0mph /  -1607.7km/h 42% 0in /  0mm
04:48 23.4 °F /  -4.8 °C 4.7 °F /  -15.2 °C 30.23in /  1023.6hPa Calm   -999.0mph /  -1607.7km/h 44% 0in /  0mm
05:03 22.3 °F /  -5.4 °C 6.0 °F /  -14.4 °C 30.24in /  1023.9hPa Calm   -999.0mph /  -1607.7km/h 49% 0in /  0mm
05:18 23.0 °F /  -5 °C 7.1 °F /  -13.8 °C 30.24in /  1023.9hPa Calm   -999.0mph /  -1607.7km/h 50% 0in /  0mm
05:34 23.2 °F /  -4.9 °C 6.4 °F /  -14.2 °C 30.24in /  1023.9hPa Calm   -999.0mph /  -1607.7km/h 48% 0in /  0mm
05:49 23.7 °F /  -4.6 °C 7.3 °F /  -13.7 °C 30.25in /  1024.3hPa Calm   -999.0mph /  -1607.7km/h 49% 0in /  0mm
06:04 23.7 °F /  -4.6 °C 7.3 °F /  -13.7 °C 30.25in /  1024.3hPa Calm   -999.0mph /  -1607.7km/h 49% 0in /  0mm
06:19 24.1 °F /  -4.4 °C 6.8 °F /  -14 °C 30.26in /  1024.6hPa Calm   -999.0mph /  -1607.7km/h 47% 0in /  0mm
06:35 24.4 °F /  -4.2 °C 5.1 °F /  -14.9 °C 30.26in /  1024.6hPa ESE 1.1mph /  1.8km/h -999.0mph /  -1607.7km/h 43% 0in /  0mm
06:50 25.2 °F /  -3.8 °C 4.8 °F /  -15.1 °C 30.26in /  1024.6hPa Calm   -999.0mph /  -1607.7km/h 41% 0in /  0mm
07:05 26.1 °F /  -3.3 °C 3.9 °F /  -15.6 °C 30.26in /  1024.6hPa Calm   -999.0mph /  -1607.7km/h 38% 0in /  0mm
07:20 27.5 °F /  -2.5 °C 4.6 °F /  -15.2 °C 30.26in /  1024.6hPa Calm   -999.0mph /  -1607.7km/h 37% 0in /  0mm
07:35 28.6 °F /  -1.9 °C 3.7 °F /  -15.7 °C 30.27in /  1024.9hPa Calm   -999.0mph /  -1607.7km/h 34% 0in /  0mm
07:51 28.9 °F /  -1.7 °C 1.3 °F /  -17.1 °C 30.28in /  1025.3hPa Calm   -999.0mph /  -1607.7km/h 30% 0in /  0mm
08:06 29.1 °F /  -1.6 °C 0.8 °F /  -17.3 °C 30.28in /  1025.3hPa Calm   -999.0mph /  -1607.7km/h 29% 0in /  0mm
08:21 30.9 °F /  -0.6 °C 0.0 °F /  -17.8 °C 30.29in /  1025.6hPa NNE 1.7mph /  2.7km/h -999.0mph /  -1607.7km/h 26% 0in /  0mm
08:36 32.0 °F /  0 °C -0.8 °F /  -18.2 °C 30.29in /  1025.6hPa Calm   -999.0mph /  -1607.7km/h 24% 0in /  0mm
08:51 33.6 °F /  0.9 °C -1.3 °F /  -18.5 °C 30.29in /  1025.6hPa Calm   -999.0mph /  -1607.7km/h 22% 0in /  0mm
09:07 35.2 °F /  1.8 °C -1.9 °F /  -18.8 °C 30.29in /  1025.6hPa NW 1.7mph /  2.7km/h -999.0mph /  -1607.7km/h 20% 0in /  0mm
09:22 36.7 °F /  2.6 °C -2.9 °F /  -19.4 °C 30.29in /  1025.6hPa West 2.2mph /  3.5km/h -999.0mph /  -1607.7km/h 18% 0in /  0mm
09:53 40.3 °F /  4.6 °C -2.4 °F /  -19.1 °C 30.30in /  1026hPa SE 1.1mph /  1.8km/h -999.0mph /  -1607.7km/h 16% 0in /  0mm
10:08 40.1 °F /  4.5 °C -2.6 °F /  -19.2 °C 30.30in /  1026hPa ESE 4.7mph /  7.6km/h -999.0mph /  -1607.7km/h 16% 0in /  0mm
10:23 40.8 °F /  4.9 °C -0.7 °F /  -18.2 °C 30.30in /  1026hPa NNE 1.7mph /  2.7km/h -999.0mph /  -1607.7km/h 17% 0in /  0mm
10:38 41.5 °F /  5.3 °C -0.1 °F /  -17.8 °C 30.30in /  1026hPa WNW 2.2mph /  3.5km/h -999.0mph /  -1607.7km/h 17% 0in /  0mm
10:53 42.8 °F /  6 °C 0.9 °F /  -17.3 °C 30.29in /  1025.6hPa NNW 3.2mph /  5.1km/h -999.0mph /  -1607.7km/h 17% 0in /  0mm
11:09 43.2 °F /  6.2 °C 0.0 °F /  -17.8 °C 30.29in /  1025.6hPa NNE 2.2mph /  3.5km/h -999.0mph /  -1607.7km/h 16% 0in /  0mm
11:24 43.3 °F /  6.3 °C 1.3 °F /  -17.1 °C 30.29in /  1025.6hPa North 4.2mph /  6.8km/h -999.0mph /  -1607.7km/h 17% 0in /  0mm
11:39 43.5 °F /  6.4 °C 1.5 °F /  -16.9 °C 30.29in /  1025.6hPa NE 1.7mph /  2.7km/h -999.0mph /  -1607.7km/h 17% 0in /  0mm
11:54 44.8 °F /  7.1 °C 2.6 °F /  -16.3 °C 30.28in /  1025.3hPa SSE 1.7mph /  2.7km/h -999.0mph /  -1607.7km/h 17% 0in /  0mm
12:09 45.3 °F /  7.4 °C 4.2 °F /  -15.4 °C 30.28in /  1025.3hPa NNW 2.7mph /  4.3km/h -999.0mph /  -1607.7km/h 18% 0in /  0mm
12:25 46.6 °F /  8.1 °C 5.3 °F /  -14.8 °C 30.28in /  1025.3hPa NW 2.7mph /  4.3km/h -999.0mph /  -1607.7km/h 18% 0in /  0mm
12:40 46.8 °F /  8.2 °C 6.7 °F /  -14.1 °C 30.27in /  1024.9hPa North 1.7mph /  2.7km/h -999.0mph /  -1607.7km/h 19% 0in /  0mm
12:55 46.8 °F /  8.2 °C 5.5 °F /  -14.7 °C 30.27in /  1024.9hPa SW 1.7mph /  2.7km/h -999.0mph /  -1607.7km/h 18% 0in /  0mm
13:10 46.6 °F /  8.1 °C 5.3 °F /  -14.8 °C 30.27in /  1024.9hPa Calm   -999.0mph /  -1607.7km/h 18% 0in /  0mm
13:26 46.0 °F /  7.8 °C 4.8 °F /  -15.1 °C 30.26in /  1024.6hPa East 1.7mph /  2.7km/h -999.0mph /  -1607.7km/h 18% 0in /  0mm
13:41 46.0 °F /  7.8 °C 6.0 °F /  -14.4 °C 30.26in /  1024.6hPa NE 2.7mph /  4.3km/h -999.0mph /  -1607.7km/h 19% 0in /  0mm
13:56 46.2 °F /  7.9 °C 6.2 °F /  -14.3 °C 30.26in /  1024.6hPa Calm   -999.0mph /  -1607.7km/h 19% 0in /  0mm
14:11 45.1 °F /  7.3 °C 6.4 °F /  -14.2 °C 30.26in /  1024.6hPa ENE 2.2mph /  3.5km/h -999.0mph /  -1607.7km/h 20% 0in /  0mm
14:26 44.4 °F /  6.9 °C 6.9 °F /  -13.9 °C 30.27in /  1024.9hPa Calm   -999.0mph /  -1607.7km/h 21% 0in /  0mm
14:42 43.7 °F /  6.5 °C 6.3 °F /  -14.3 °C 30.27in /  1024.9hPa South 1.7mph /  2.7km/h -999.0mph /  -1607.7km/h 21% 0in /  0mm
14:57 42.8 °F /  6 °C 6.5 °F /  -14.2 °C 30.27in /  1024.9hPa NW 1.7mph /  2.7km/h -999.0mph /  -1607.7km/h 22% 0in /  0mm
15:12 42.1 °F /  5.6 °C 6.9 °F /  -13.9 °C 30.28in /  1025.3hPa Calm   -999.0mph /  -1607.7km/h 23% 0in /  0mm
15:27 41.4 °F /  5.2 °C 6.3 °F /  -14.3 °C 30.28in /  1025.3hPa South 1.1mph /  1.8km/h -999.0mph /  -1607.7km/h 23% 0in /  0mm
15:42 40.5 °F /  4.7 °C 5.6 °F /  -14.7 °C 30.28in /  1025.3hPa South 2.7mph /  4.3km/h -999.0mph /  -1607.7km/h 23% 0in /  0mm
15:58 39.2 °F /  4 °C 4.5 °F /  -15.3 °C 30.29in /  1025.6hPa Calm   -999.0mph /  -1607.7km/h 23% 0in /  0mm
16:13 38.1 °F /  3.4 °C 5.3 °F /  -14.8 °C 30.29in /  1025.6hPa NNW 2.2mph /  3.5km/h -999.0mph /  -1607.7km/h 25% 0in /  0mm
16:28 37.2 °F /  2.9 °C 6.3 °F /  -14.3 °C 30.29in /  1025.6hPa NW 2.7mph /  4.3km/h -999.0mph /  -1607.7km/h 27% 0in /  0mm
16:43 36.1 °F /  2.3 °C 6.1 °F /  -14.4 °C 30.29in /  1025.6hPa Calm   -999.0mph /  -1607.7km/h 28% 0in /  0mm
16:58 34.9 °F /  1.6 °C 5.8 °F /  -14.6 °C 30.30in /  1026hPa Calm   -999.0mph /  -1607.7km/h 29% 0in /  0mm
17:14 34.0 °F /  1.1 °C 7.2 °F /  -13.8 °C 30.31in /  1026.3hPa Calm   -999.0mph /  -1607.7km/h 32% 0in /  0mm
17:29 33.3 °F /  0.7 °C 5.9 °F /  -14.5 °C 30.30in /  1026hPa Calm   -999.0mph /  -1607.7km/h 31% 0in /  0mm
17:44 32.7 °F /  0.4 °C 6.1 °F /  -14.4 °C 30.32in /  1026.6hPa Calm   -999.0mph /  -1607.7km/h 32% 0in /  0mm
17:59 33.6 °F /  0.9 °C 7.5 °F /  -13.6 °C 30.33in /  1027hPa SE 3.2mph /  5.1km/h -999.0mph /  -1607.7km/h 33% 0in /  0mm
18:14 32.5 °F /  0.3 °C 7.2 °F /  -13.8 °C 30.32in /  1026.6hPa Calm   -999.0mph /  -1607.7km/h 34% 0in /  0mm
18:30 32.0 °F /  0 °C 7.4 °F /  -13.7 °C 30.33in /  1027hPa Calm   -999.0mph /  -1607.7km/h 35% 0in /  0mm
18:45 31.6 °F /  -0.2 °C 7.7 °F /  -13.5 °C 30.32in /  1026.6hPa Calm   -999.0mph /  -1607.7km/h 36% 0in /  0mm
19:00 31.6 °F /  -0.2 °C 8.3 °F /  -13.2 °C 30.32in /  1026.6hPa NNW 2.2mph /  3.5km/h -999.0mph /  -1607.7km/h 37% 0in /  0mm
19:15 32.4 °F /  0.2 °C 9.0 °F /  -12.8 °C 30.32in /  1026.6hPa SSE 2.7mph /  4.3km/h -999.0mph /  -1607.7km/h 37% 0in /  0mm
19:30 33.1 °F /  0.6 °C 10.2 °F /  -12.1 °C 30.32in /  1026.6hPa ESE 1.7mph /  2.7km/h -999.0mph /  -1607.7km/h 38% 0in /  0mm
19:46 32.7 °F /  0.4 °C 10.4 °F /  -12 °C 30.33in /  1027hPa Calm   -999.0mph /  -1607.7km/h 39% 0in /  0mm
20:01 32.4 °F /  0.2 °C 9.6 °F /  -12.4 °C 30.33in /  1027hPa North 2.2mph /  3.5km/h -999.0mph /  -1607.7km/h 38% 0in /  0mm
20:16 32.4 °F /  0.2 °C 9.6 °F /  -12.4 °C 30.33in /  1027hPa NE 1.7mph /  2.7km/h -999.0mph /  -1607.7km/h 38% 0in /  0mm
20:31 32.4 °F /  0.2 °C 9.0 °F /  -12.8 °C 30.33in /  1027hPa Calm   -999.0mph /  -1607.7km/h 37% 0in /  0mm
20:47 32.2 °F /  0.1 °C 8.8 °F /  -12.9 °C 30.32in /  1026.6hPa ESE 2.2mph /  3.5km/h -999.0mph /  -1607.7km/h 37% 0in /  0mm
21:02 32.2 °F /  0.1 °C 8.8 °F /  -12.9 °C 30.32in /  1026.6hPa SW 3.7mph /  6km/h -999.0mph /  -1607.7km/h 37% 0in /  0mm
21:17 33.6 °F /  0.9 °C 8.8 °F /  -12.9 °C 30.32in /  1026.6hPa Calm   -999.0mph /  -1607.7km/h 35% 0in /  0mm
21:32 32.7 °F /  0.4 °C 7.4 °F /  -13.7 °C 30.33in /  1027hPa South 1.1mph /  1.8km/h -999.0mph /  -1607.7km/h 34% 0in /  0mm
21:47 32.7 °F /  0.4 °C 6.7 °F /  -14.1 °C 30.33in /  1027hPa Calm   -999.0mph /  -1607.7km/h 33% 0in /  0mm
22:18 31.6 °F /  -0.2 °C 5.1 °F /  -14.9 °C 30.33in /  1027hPa Calm   -999.0mph /  -1607.7km/h 32% 0in /  0mm
22:33 31.6 °F /  -0.2 °C 4.4 °F /  -15.3 °C 30.34in /  1027.3hPa Calm   -999.0mph /  -1607.7km/h 31% 0in /  0mm
22:48 31.6 °F /  -0.2 °C 4.4 °F /  -15.3 °C 30.34in /  1027.3hPa Calm   -999.0mph /  -1607.7km/h 31% 0in /  0mm
23:03 32.2 °F /  0.1 °C 3.5 °F /  -15.8 °C 30.34in /  1027.3hPa SSE 4.2mph /  6.8km/h -999.0mph /  -1607.7km/h 29% 0in /  0mm
23:19 32.2 °F /  0.1 °C 2.7 °F /  -16.3 °C 30.34in /  1027.3hPa South 2.2mph /  3.5km/h -999.0mph /  -1607.7km/h 28% 0in /  0mm
23:34 31.6 °F /  -0.2 °C 2.2 °F /  -16.6 °C 30.34in /  1027.3hPa SSW 1.7mph /  2.7km/h -999.0mph /  -1607.7km/h 28% 0in /  0mm
23:49 30.9 °F /  -0.6 °C 2.3 °F /  -16.5 °C 30.35in /  1027.7hPa Calm   -999.0mph /  -1607.7km/h 29% 0in /  0mm
Big Bear CA Weather